Time;durP1;ratioP1;P1;durP2;ratioP2;P2;SDS_P1;SDS_P2;PMS_P1;PMS_P2;Temp;Humidity;BMP_temperature;BMP_pressure;BME280_temperature;BME280_humidity;BME280_pressure;Samples;Min_cycle;Max_cycle;Signal;HPM_P1;HPM_P2
2023/10/24 00:01:27;;;;;;;3.47;2.55;;;14.70;99.90;;;;;;5042172;28;20190;-67
2023/10/24 00:03:56;;;;;;;3.55;2.80;;;14.70;99.90;;;;;;5039226;28;20177;-68
2023/10/24 00:06:22;;;;;;;3.55;2.92;;;14.70;99.90;;;;;;5044300;28;20205;-67
2023/10/24 00:11:40;;;;;;;3.75;2.55;;;14.60;99.90;;;;;;5022748;28;20180;-68
2023/10/24 00:14:06;;;;;;;3.60;2.70;;;14.60;99.90;;;;;;5034767;28;20162;-68
2023/10/24 00:16:32;;;;;;;4.25;2.80;;;14.60;99.90;;;;;;5021907;28;20215;-67
2023/10/24 00:18:57;;;;;;;3.22;2.42;;;14.60;99.90;;;;;;5030388;28;20284;-67
2023/10/24 00:21:23;;;;;;;4.78;2.58;;;14.60;99.90;;;;;;5034457;28;20209;-66
2023/10/24 00:23:49;;;;;;;2.95;2.50;;;14.60;99.90;;;;;;5033180;28;20239;-66
2023/10/24 00:26:14;;;;;;;3.50;2.30;;;14.60;99.90;;;;;;5026939;28;20182;-68
2023/10/24 00:28:40;;;;;;;3.90;2.33;;;14.60;99.90;;;;;;5049310;28;20259;-68
2023/10/24 00:31:07;;;;;;;4.05;2.67;;;14.60;99.90;;;;;;5033831;28;20255;-67
2023/10/24 00:33:32;;;;;;;3.20;2.25;;;14.60;99.90;;;;;;5028734;28;20178;-66
2023/10/24 00:35:58;;;;;;;4.40;2.42;;;14.60;99.90;;;;;;5034033;28;20166;-67
2023/10/24 00:38:23;;;;;;;4.50;2.45;;;14.60;99.90;;;;;;5034158;28;20275;-67
2023/10/24 00:40:49;;;;;;;3.05;2.40;;;14.60;99.90;;;;;;5030578;28;20183;-67
2023/10/24 00:43:17;;;;;;;3.03;2.55;;;14.60;99.90;;;;;;5014464;28;20206;-66
2023/10/24 00:45:45;;;;;;;3.47;2.42;;;14.70;99.90;;;;;;5020190;28;20268;-66
2023/10/24 00:48:15;;;;;;;3.60;2.60;;;14.60;99.90;;;;;;5033386;28;20198;-67
2023/10/24 00:50:41;;;;;;;4.05;2.33;;;14.60;99.90;;;;;;5033062;28;20225;-68
2023/10/24 00:53:07;;;;;;;3.10;2.17;;;14.70;99.90;;;;;;5014293;28;20246;-67
2023/10/24 00:55:32;;;;;;;4.70;2.38;;;14.70;99.90;;;;;;5023746;28;20186;-68
2023/10/24 00:58:00;;;;;;;4.25;2.33;;;14.70;99.90;;;;;;5033800;28;20214;-68
2023/10/24 01:00:28;;;;;;;4.28;2.28;;;14.70;99.90;;;;;;5032273;28;20186;-68
2023/10/24 01:02:57;;;;;;;2.50;2.25;;;14.70;99.90;;;;;;5029403;28;20170;-67
2023/10/24 01:05:26;;;;;;;2.50;2.10;;;14.60;99.90;;;;;;5034000;28;20198;-67
2023/10/24 01:07:52;;;;;;;3.92;2.28;;;14.70;99.90;;;;;;5034332;28;20264;-66
2023/10/24 01:10:17;;;;;;;3.95;2.50;;;14.70;99.90;;;;;;5034044;28;20205;-67
2023/10/24 01:12:46;;;;;;;4.22;2.20;;;14.70;99.90;;;;;;5033705;28;20162;-67
2023/10/24 01:15:14;;;;;;;3.70;2.33;;;14.70;99.90;;;;;;5033983;28;20181;-67
2023/10/24 01:17:50;;;;;;;3.05;2.13;;;14.70;99.90;;;;;;5032154;28;20202;-67
2023/10/24 01:20:16;;;;;;;5.72;2.20;;;14.70;99.90;;;;;;5035985;28;20182;-67
2023/10/24 01:22:44;;;;;;;3.10;2.42;;;14.70;99.90;;;;;;5017114;28;20338;-66
2023/10/24 01:25:14;;;;;;;3.10;2.00;;;14.70;99.90;;;;;;5037167;28;20205;-67
2023/10/24 01:27:40;;;;;;;4.13;2.40;;;14.80;99.90;;;;;;5026068;28;20277;-67
2023/10/24 01:30:07;;;;;;;3.45;2.20;;;14.80;99.90;;;;;;5027607;28;20185;-67
2023/10/24 01:32:32;;;;;;;4.82;2.10;;;14.80;99.90;;;;;;5037184;28;20204;-66
2023/10/24 01:34:58;;;;;;;3.00;2.70;;;14.80;99.90;;;;;;5037398;28;20189;-67
2023/10/24 01:37:23;;;;;;;2.53;1.83;;;14.80;99.90;;;;;;5036472;28;20197;-67
2023/10/24 01:39:49;;;;;;;2.40;1.98;;;14.80;99.90;;;;;;5036978;28;20201;-67
2023/10/24 01:42:15;;;;;;;2.55;2.00;;;14.90;99.90;;;;;;5036646;28;20449;-67
2023/10/24 01:44:42;;;;;;;2.42;2.00;;;14.80;99.90;;;;;;5037414;28;20223;-66
2023/10/24 01:47:08;;;;;;;3.75;1.90;;;14.90;99.90;;;;;;5036059;28;20178;-67
2023/10/24 01:49:36;;;;;;;4.50;1.80;;;14.90;99.90;;;;;;5036518;28;20162;-66
2023/10/24 01:52:02;;;;;;;2.10;1.52;;;14.90;99.90;;;;;;5021760;28;20189;-67
2023/10/24 01:54:30;;;;;;;2.70;1.70;;;14.90;99.90;;;;;;5034084;28;20198;-67
2023/10/24 01:56:58;;;;;;;2.95;1.52;;;14.90;99.90;;;;;;5026193;28;20197;-67
2023/10/24 01:59:28;;;;;;;2.45;1.88;;;14.90;99.90;;;;;;5030375;28;20173;-67
2023/10/24 02:01:54;;;;;;;2.20;1.50;;;14.80;99.90;;;;;;5035555;28;20178;-67
2023/10/24 02:04:19;;;;;;;2.45;1.85;;;14.80;99.90;;;;;;5035744;28;20273;-66
2023/10/24 02:06:45;;;;;;;3.53;1.80;;;14.90;99.90;;;;;;5024975;28;20194;-66
2023/10/24 02:09:11;;;;;;;2.53;1.77;;;14.90;99.90;;;;;;5023791;28;20277;-66
2023/10/24 02:11:38;;;;;;;2.50;1.50;;;14.90;99.90;;;;;;5036590;28;20178;-67
2023/10/24 02:14:06;;;;;;;3.35;1.80;;;14.80;99.90;;;;;;5036164;28;20194;-67
2023/10/24 02:16:34;;;;;;;3.65;1.83;;;14.90;99.90;;;;;;5036348;28;20173;-67
2023/10/24 02:19:00;;;;;;;2.03;1.50;;;14.90;99.90;;;;;;5030301;28;20205;-67
2023/10/24 02:21:25;;;;;;;2.72;1.50;;;14.80;99.90;;;;;;5028158;28;20175;-67
2023/10/24 02:23:51;;;;;;;2.50;1.58;;;14.90;99.90;;;;;;5021466;28;20194;-67
2023/10/24 02:26:16;;;;;;;1.55;1.27;;;14.80;99.90;;;;;;5041614;28;20259;-67
2023/10/24 02:28:42;;;;;;;1.85;1.40;;;14.80;99.90;;;;;;5035410;28;20205;-67
2023/10/24 02:31:10;;;;;;;2.25;1.38;;;14.90;99.90;;;;;;5028547;28;20182;-66
2023/10/24 02:33:37;;;;;;;2.60;1.42;;;14.80;99.90;;;;;;5050078;28;20189;-67
2023/10/24 02:36:09;;;;;;;2.33;1.33;;;14.90;99.90;;;;;;5039071;28;20445;-67
2023/10/24 02:38:35;;;;;;;2.00;1.48;;;14.90;99.90;;;;;;5034721;28;20220;-66
2023/10/24 02:41:01;;;;;;;1.95;1.20;;;14.90;99.90;;;;;;5035965;28;20188;-66
2023/10/24 02:43:27;;;;;;;1.50;1.40;;;14.90;99.90;;;;;;5030175;28;20182;-66
2023/10/24 02:45:54;;;;;;;1.90;1.20;;;14.90;99.90;;;;;;5034168;28;20257;-67
2023/10/24 02:48:20;;;;;;;1.85;1.42;;;14.90;99.90;;;;;;5025974;28;20246;-67
2023/10/24 02:50:52;;;;;;;3.33;1.50;;;14.90;99.90;;;;;;5027673;28;20291;-66
2023/10/24 02:53:17;;;;;;;1.30;1.20;;;14.90;99.90;;;;;;5033208;28;20179;-66
2023/10/24 02:55:43;;;;;;;2.17;1.50;;;14.80;99.90;;;;;;5031508;28;20174;-66
2023/10/24 02:58:09;;;;;;;2.22;1.38;;;14.90;99.90;;;;;;5035342;28;20237;-66
2023/10/24 03:00:36;;;;;;;2.78;1.40;;;14.90;99.90;;;;;;5027581;28;20174;-67
2023/10/24 03:03:02;;;;;;;2.13;1.42;;;14.90;99.90;;;;;;5025010;28;20293;-66
2023/10/24 03:05:31;;;;;;;3.17;1.48;;;14.90;99.90;;;;;;5015643;28;20233;-67
2023/10/24 03:07:59;;;;;;;1.88;1.30;;;14.90;99.90;;;;;;5015725;28;20209;-67
2023/10/24 03:10:25;;;;;;;2.03;1.40;;;14.80;99.90;;;;;;5025210;28;20205;-67
2023/10/24 03:12:55;;;;;;;1.50;1.20;;;14.90;99.90;;;;;;5034272;28;20174;-67
2023/10/24 03:15:20;;;;;;;2.53;1.23;;;14.90;99.90;;;;;;5025078;28;20208;-66
2023/10/24 03:17:46;;;;;;;2.20;1.20;;;14.90;99.90;;;;;;5019430;28;20175;-67
2023/10/24 03:20:14;;;;;;;1.33;1.20;;;14.90;99.90;;;;;;5022352;28;20244;-67
2023/10/24 03:22:40;;;;;;;1.88;1.20;;;14.90;99.90;;;;;;5029503;28;20217;-68
2023/10/24 03:25:07;;;;;;;1.23;1.13;;;14.90;99.90;;;;;;5030485;28;20174;-68
2023/10/24 03:27:34;;;;;;;1.20;1.02;;;14.90;99.90;;;;;;5022377;28;20251;-67
2023/10/24 03:30:05;;;;;;;2.65;1.10;;;14.90;99.90;;;;;;5035064;28;20255;-67
2023/10/24 03:32:35;;;;;;;1.73;1.42;;;14.90;99.90;;;;;;5034660;28;20173;-68
2023/10/24 03:35:03;;;;;;;2.28;1.38;;;14.90;99.90;;;;;;5030658;28;20224;-68
2023/10/24 03:37:29;;;;;;;3.15;1.27;;;14.90;99.90;;;;;;5033543;28;20210;-68
2023/10/24 03:39:55;;;;;;;1.70;1.20;;;14.90;99.90;;;;;;5034299;28;20177;-67
2023/10/24 03:42:20;;;;;;;2.17;1.55;;;14.90;99.90;;;;;;5040926;28;20453;-68
2023/10/24 03:44:48;;;;;;;1.70;1.33;;;14.90;99.90;;;;;;5033653;28;20192;-68
2023/10/24 03:47:14;;;;;;;2.40;1.45;;;14.90;99.90;;;;;;5024848;28;20174;-68
2023/10/24 03:49:41;;;;;;;2.15;1.23;;;14.90;99.90;;;;;;5034509;28;20243;-68
2023/10/24 03:52:07;;;;;;;1.48;1.23;;;14.90;99.90;;;;;;5034216;28;20178;-68
2023/10/24 03:54:33;;;;;;;2.28;1.30;;;14.90;99.90;;;;;;5034435;28;20204;-68
2023/10/24 03:57:00;;;;;;;3.00;1.20;;;14.90;99.90;;;;;;5034158;28;20182;-68
2023/10/24 03:59:26;;;;;;;1.20;1.00;;;14.90;99.90;;;;;;5032697;28;20178;-70
2023/10/24 04:01:56;;;;;;;2.83;2.30;;;14.90;99.90;;;;;;5018741;28;20241;-67
2023/10/24 04:04:29;;;;;;;4.00;2.08;;;15.00;99.90;;;;;;5031701;28;20163;-68
2023/10/24 04:07:00;;;;;;;2.50;2.00;;;15.00;99.90;;;;;;5031391;28;20178;-67
2023/10/24 04:09:25;;;;;;;1.85;1.38;;;15.00;99.90;;;;;;5034482;28;20386;-67
2023/10/24 04:11:51;;;;;;;1.30;1.13;;;14.90;99.90;;;;;;5034601;28;20288;-67
2023/10/24 04:14:16;;;;;;;1.65;1.20;;;15.00;99.90;;;;;;5034505;28;20173;-67
2023/10/24 04:16:42;;;;;;;1.20;1.10;;;15.00;99.90;;;;;;5034434;28;20170;-68
2023/10/24 04:19:08;;;;;;;1.30;1.05;;;14.90;99.90;;;;;;5033373;28;20190;-68
2023/10/24 04:21:35;;;;;;;2.08;1.20;;;15.00;99.90;;;;;;5033969;28;20269;-67
2023/10/24 04:24:01;;;;;;;2.03;1.08;;;15.00;99.90;;;;;;5034414;28;20257;-67
2023/10/24 04:26:26;;;;;;;1.33;1.08;;;15.00;99.90;;;;;;5034649;28;20224;-66
2023/10/24 04:28:52;;;;;;;1.55;0.93;;;15.00;99.90;;;;;;5033315;28;20240;-67
2023/10/24 04:31:18;;;;;;;1.45;0.90;;;15.00;99.90;;;;;;5031179;28;20393;-67
2023/10/24 04:33:44;;;;;;;0.88;0.70;;;15.00;99.90;;;;;;5034469;28;20174;-68
2023/10/24 04:36:14;;;;;;;1.60;1.10;;;14.90;99.90;;;;;;5026235;28;20198;-71
2023/10/24 04:38:40;;;;;;;3.08;1.45;;;14.90;99.90;;;;;;5034027;28;20232;-75
2023/10/24 04:41:05;;;;;;;4.70;1.60;;;14.90;99.90;;;;;;5014911;28;20198;-75
2023/10/24 04:43:31;;;;;;;1.30;1.08;;;14.90;99.90;;;;;;5014575;28;20198;-74
2023/10/24 04:45:57;;;;;;;1.33;1.00;;;14.90;99.90;;;;;;5031803;28;20220;-74
2023/10/24 04:48:22;;;;;;;1.65;1.00;;;14.90;99.90;;;;;;5034122;28;20288;-74
2023/10/24 04:50:48;;;;;;;1.00;0.77;;;14.90;99.90;;;;;;5021194;28;20198;-68
2023/10/24 04:53:13;;;;;;;1.35;1.00;;;15.00;99.90;;;;;;5014672;28;20261;-68
2023/10/24 04:55:42;;;;;;;1.13;0.68;;;14.90;99.90;;;;;;5034491;28;20170;-67
2023/10/24 04:58:07;;;;;;;0.90;0.70;;;14.90;99.90;;;;;;5037633;28;20269;-66
2023/10/24 05:00:33;;;;;;;0.70;0.50;;;15.00;99.90;;;;;;5037744;28;20301;-67
2023/10/24 05:02:59;;;;;;;1.05;0.60;;;14.90;99.90;;;;;;5037509;28;20209;-67
2023/10/24 05:05:24;;;;;;;0.90;0.60;;;14.90;99.90;;;;;;5037736;28;20178;-67
2023/10/24 05:07:50;;;;;;;1.05;0.60;;;14.90;99.90;;;;;;5037410;28;20202;-67
2023/10/24 05:10:16;;;;;;;0.60;0.52;;;14.80;99.90;;;;;;5037351;28;20188;-67
2023/10/24 05:12:44;;;;;;;1.40;0.80;;;14.80;99.90;;;;;;5037379;28;20373;-67
2023/10/24 05:15:12;;;;;;;0.93;0.63;;;14.80;99.90;;;;;;5037385;28;20291;-67
2023/10/24 05:17:37;;;;;;;0.85;0.50;;;14.80;99.90;;;;;;5037310;28;20174;-67
2023/10/24 05:20:07;;;;;;;0.90;0.50;;;14.80;99.90;;;;;;5036994;28;20441;-67
2023/10/24 05:22:33;;;;;;;1.15;0.50;;;14.80;99.90;;;;;;5036844;28;20224;-67
2023/10/24 05:25:01;;;;;;;0.80;0.60;;;14.70;99.90;;;;;;5037412;28;20251;-68
2023/10/24 05:27:27;;;;;;;0.90;0.60;;;14.70;99.90;;;;;;5030934;28;20356;-67
2023/10/24 05:29:55;;;;;;;1.13;0.70;;;14.70;99.90;;;;;;5032305;28;20213;-67
2023/10/24 05:32:23;;;;;;;1.42;0.70;;;14.70;99.90;;;;;;5051395;28;20284;-66
2023/10/24 05:34:53;;;;;;;1.58;0.70;;;14.70;99.90;;;;;;5043976;28;20243;-67
2023/10/24 05:37:19;;;;;;;0.82;0.47;;;14.70;99.90;;;;;;5036433;28;20198;-67
2023/10/24 05:39:47;;;;;;;0.90;0.60;;;14.70;99.90;;;;;;5036577;28;20154;-67
2023/10/24 05:42:13;;;;;;;1.30;0.60;;;14.70;99.90;;;;;;5055293;28;20174;-67
2023/10/24 05:44:38;;;;;;;0.77;0.60;;;14.70;99.90;;;;;;5056798;28;20170;-67
2023/10/24 05:47:04;;;;;;;0.60;0.60;;;14.60;99.90;;;;;;5036396;28;20185;-67
2023/10/24 05:49:30;;;;;;;0.47;0.47;;;14.70;99.90;;;;;;5036524;28;20237;-67
2023/10/24 05:51:58;;;;;;;2.15;0.70;;;14.70;99.90;;;;;;5036813;28;20189;-66
2023/10/24 05:54:23;;;;;;;0.90;0.60;;;14.70;99.90;;;;;;5036490;28;20174;-67
2023/10/24 05:56:49;;;;;;;1.42;0.80;;;14.60;99.90;;;;;;5036677;28;20174;-67
2023/10/24 05:59:22;;;;;;;0.52;0.52;;;14.60;99.90;;;;;;5036109;28;20174;-67
2023/10/24 06:01:49;;;;;;;0.90;0.60;;;14.60;99.90;;;;;;5036430;28;20205;-67
2023/10/24 06:04:15;;;;;;;0.70;0.60;;;14.60;99.90;;;;;;5037361;28;20189;-67
2023/10/24 06:06:43;;;;;;;0.80;0.60;;;14.60;99.90;;;;;;5053688;28;20186;-68
2023/10/24 06:09:12;;;;;;;0.68;0.57;;;14.60;99.90;;;;;;5026925;28;20191;-68
2023/10/24 06:11:41;;;;;;;0.75;0.45;;;14.60;99.90;;;;;;5033224;28;20209;-68
2023/10/24 06:14:09;;;;;;;0.70;0.63;;;14.60;99.90;;;;;;5036380;28;20175;-67
2023/10/24 06:16:34;;;;;;;1.73;0.63;;;14.60;99.90;;;;;;5036233;28;20174;-67
2023/10/24 06:19:00;;;;;;;1.20;0.70;;;14.60;99.90;;;;;;5036107;28;20202;-68
2023/10/24 06:21:27;;;;;;;0.52;0.52;;;14.60;99.90;;;;;;5036414;28;20193;-68
2023/10/24 06:23:53;;;;;;;0.80;0.60;;;14.60;99.90;;;;;;5036201;28;20201;-67
2023/10/24 06:26:19;;;;;;;0.80;0.70;;;14.60;99.90;;;;;;5036218;28;20259;-67
2023/10/24 06:28:46;;;;;;;0.50;0.50;;;14.60;99.90;;;;;;5041693;28;20193;-68
2023/10/24 06:31:14;;;;;;;1.02;0.70;;;14.60;99.90;;;;;;5036247;28;20190;-67
2023/10/24 06:33:43;;;;;;;1.73;0.70;;;14.60;99.90;;;;;;5036301;28;20170;-68
2023/10/24 06:36:09;;;;;;;1.13;0.85;;;14.60;99.90;;;;;;5035906;28;20170;-67
2023/10/24 06:38:36;;;;;;;1.60;0.90;;;14.60;99.90;;;;;;5036070;28;20285;-67
2023/10/24 06:41:02;;;;;;;1.42;0.90;;;14.60;99.90;;;;;;5036006;28;20268;-68
2023/10/24 06:43:28;;;;;;;1.65;0.98;;;14.60;99.90;;;;;;5035753;28;20280;-68
2023/10/24 06:45:53;;;;;;;1.00;0.80;;;14.60;99.90;;;;;;5036122;28;20269;-68
2023/10/24 06:48:19;;;;;;;2.00;0.90;;;14.60;99.90;;;;;;5035592;28;20209;-68
2023/10/24 06:50:45;;;;;;;1.77;0.93;;;14.60;99.90;;;;;;5036112;28;20177;-68
2023/10/24 06:53:12;;;;;;;1.30;0.90;;;14.60;99.90;;;;;;5035371;28;20170;-68
2023/10/24 06:55:37;;;;;;;2.25;0.90;;;14.50;99.90;;;;;;5035547;28;20251;-67
2023/10/24 06:58:04;;;;;;;1.98;1.05;;;14.50;99.90;;;;;;5035607;28;20174;-67
2023/10/24 07:00:30;;;;;;;2.75;1.00;;;14.50;99.90;;;;;;5035469;28;20217;-67
2023/10/24 07:02:58;;;;;;;1.10;0.90;;;14.50;99.90;;;;;;5035574;28;20260;-66
2023/10/24 07:05:24;;;;;;;1.10;0.80;;;14.50;99.90;;;;;;5035461;28;20224;-67
2023/10/24 07:07:50;;;;;;;1.20;0.90;;;14.50;99.90;;;;;;5035588;28;20416;-67
2023/10/24 07:10:23;;;;;;;0.80;0.70;;;14.50;99.90;;;;;;5032165;28;20179;-68
2023/10/24 07:12:49;;;;;;;2.95;0.90;;;14.50;99.90;;;;;;5015666;28;20195;-66
2023/10/24 07:15:15;;;;;;;0.85;0.70;;;14.50;99.90;;;;;;5015477;28;20171;-67
2023/10/24 07:17:40;;;;;;;1.25;0.88;;;14.50;99.90;;;;;;5034465;28;20243;-67
2023/10/24 07:20:09;;;;;;;3.80;1.10;;;14.50;99.90;;;;;;5035415;28;20228;-68
2023/10/24 07:22:34;;;;;;;2.83;1.25;;;14.50;99.90;;;;;;5035612;28;20181;-67
2023/10/24 07:25:03;;;;;;;2.92;1.08;;;14.50;99.90;;;;;;5040712;28;20173;-67
2023/10/24 07:27:30;;;;;;;1.30;0.95;;;14.50;99.90;;;;;;5051403;28;20182;-67
2023/10/24 07:29:56;;;;;;;1.73;0.93;;;14.50;99.90;;;;;;5034711;28;20202;-66
2023/10/24 07:32:24;;;;;;;2.45;1.00;;;14.50;99.90;;;;;;5034668;28;20220;-66
2023/10/24 07:34:54;;;;;;;2.20;1.00;;;14.60;99.90;;;;;;5035067;28;20174;-66
2023/10/24 07:37:20;;;;;;;0.88;0.75;;;14.60;99.90;;;;;;5034610;28;20216;-67
2023/10/24 07:39:45;;;;;;;1.40;1.00;;;14.60;99.90;;;;;;5020007;28;20171;-66
2023/10/24 07:42:11;;;;;;;1.45;1.10;;;14.60;99.90;;;;;;5015053;28;20270;-67
2023/10/24 07:44:36;;;;;;;2.30;1.00;;;14.60;99.90;;;;;;5019700;28;20238;-67
2023/10/24 07:47:04;;;;;;;1.77;1.10;;;14.60;99.90;;;;;;5034766;28;20194;-68
2023/10/24 07:49:34;;;;;;;1.85;1.10;;;14.60;99.90;;;;;;5034715;28;20223;-66
2023/10/24 07:51:59;;;;;;;2.30;1.02;;;14.60;99.90;;;;;;5034560;28;20184;-67
2023/10/24 07:54:25;;;;;;;2.05;1.00;;;14.70;99.90;;;;;;5034549;28;20194;-68
2023/10/24 07:56:52;;;;;;;3.00;1.60;;;14.70;99.90;;;;;;5034338;28;20178;-67
2023/10/24 07:59:18;;;;;;;3.40;1.40;;;14.80;99.90;;;;;;5034415;28;20208;-67
2023/10/24 08:01:46;;;;;;;2.80;0.98;;;14.80;99.90;;;;;;5035499;28;20186;-68
2023/10/24 08:04:12;;;;;;;1.30;0.88;;;14.80;99.90;;;;;;5050463;28;20178;-67
2023/10/24 08:06:37;;;;;;;2.55;0.90;;;14.80;99.90;;;;;;5034375;28;20307;-67
2023/10/24 08:09:05;;;;;;;0.80;0.80;;;14.80;99.90;;;;;;5039868;28;20205;-68
2023/10/24 08:11:33;;;;;;;1.52;0.85;;;14.80;99.90;;;;;;5053055;28;20172;-68
2023/10/24 08:13:59;;;;;;;2.47;0.80;;;14.90;99.90;;;;;;5034658;28;20459;-66
2023/10/24 08:16:24;;;;;;;1.85;0.95;;;14.90;99.90;;;;;;5022944;28;20178;-67
2023/10/24 08:18:52;;;;;;;1.35;1.00;;;14.90;99.90;;;;;;5021278;28;20186;-67
2023/10/24 08:21:18;;;;;;;1.10;0.77;;;15.00;99.90;;;;;;5024922;28;20174;-67
2023/10/24 08:23:44;;;;;;;1.23;0.90;;;15.00;99.90;;;;;;5014866;28;20195;-67
2023/10/24 08:26:09;;;;;;;1.60;0.90;;;15.00;99.90;;;;;;5024003;28;20189;-67
2023/10/24 08:28:37;;;;;;;1.33;0.90;;;15.00;99.90;;;;;;5035218;28;20232;-67
2023/10/24 08:31:05;;;;;;;0.98;0.80;;;15.10;99.90;;;;;;5038137;28;20180;-67
2023/10/24 08:33:33;;;;;;;1.30;0.80;;;15.10;99.90;;;;;;5038386;28;20198;-67
2023/10/24 08:35:58;;;;;;;1.40;0.90;;;15.10;99.90;;;;;;5037950;28;20239;-67
2023/10/24 08:38:24;;;;;;;0.95;0.70;;;15.10;99.90;;;;;;5038144;28;20220;-67
2023/10/24 08:40:50;;;;;;;1.83;0.90;;;15.10;99.90;;;;;;5037948;28;20202;-68
2023/10/24 08:43:18;;;;;;;1.10;0.80;;;15.10;99.90;;;;;;5038375;28;20260;-67
2023/10/24 08:45:44;;;;;;;0.98;0.80;;;15.10;99.90;;;;;;5037716;28;20174;-67
2023/10/24 08:48:10;;;;;;;1.88;0.70;;;15.10;99.90;;;;;;5037754;28;20304;-68
2023/10/24 08:50:36;;;;;;;0.80;0.73;;;15.10;99.90;;;;;;5038159;28;20199;-68
2023/10/24 08:53:05;;;;;;;1.38;0.85;;;15.10;99.90;;;;;;5037971;28;20169;-68
2023/10/24 08:55:31;;;;;;;0.95;0.80;;;15.10;99.90;;;;;;5038174;28;20232;-68
2023/10/24 08:57:59;;;;;;;0.90;0.70;;;15.10;99.90;;;;;;5038030;28;20196;-68
2023/10/24 09:00:25;;;;;;;1.00;0.80;;;15.20;99.90;;;;;;5038044;28;20178;-67
2023/10/24 09:02:51;;;;;;;1.05;0.70;;;15.20;99.90;;;;;;5037625;28;20185;-68
2023/10/24 09:05:20;;;;;;;1.00;0.70;;;15.20;99.90;;;;;;5037772;28;20272;-68
2023/10/24 09:07:48;;;;;;;0.80;0.63;;;15.20;99.90;;;;;;5037691;28;20237;-68
2023/10/24 09:10:13;;;;;;;1.92;0.80;;;15.30;99.90;;;;;;5037786;28;20212;-68
2023/10/24 09:12:42;;;;;;;2.53;0.80;;;15.30;99.90;;;;;;5041269;28;20213;-67
2023/10/24 09:15:12;;;;;;;1.10;0.63;;;15.30;99.90;;;;;;5057561;28;20196;-67
2023/10/24 09:17:37;;;;;;;1.20;0.70;;;15.30;99.90;;;;;;5031548;28;20202;-68
2023/10/24 09:20:05;;;;;;;0.75;0.60;;;15.40;99.90;;;;;;5029018;28;20181;-68
2023/10/24 09:22:31;;;;;;;1.92;0.77;;;15.40;99.90;;;;;;5037386;28;20260;-68
2023/10/24 09:24:58;;;;;;;1.15;0.85;;;15.50;99.90;;;;;;5037483;28;20181;-67
2023/10/24 09:27:27;;;;;;;0.98;0.80;;;15.50;99.90;;;;;;5037349;28;20187;-67
2023/10/24 09:29:55;;;;;;;1.48;1.00;;;15.50;99.90;;;;;;5037238;28;20174;-66
2023/10/24 09:32:23;;;;;;;2.35;1.00;;;15.60;99.90;;;;;;5033913;28;20173;-66
2023/10/24 09:34:52;;;;;;;1.63;1.10;;;15.60;99.90;;;;;;5057378;28;20169;-67
2023/10/24 09:37:20;;;;;;;1.15;1.00;;;15.70;99.90;;;;;;5037597;28;20292;-67
2023/10/24 09:39:59;;;;;;;1.75;1.02;;;15.70;99.90;;;;;;5038167;28;20170;-68
2023/10/24 09:42:32;;;;;;;1.10;0.90;;;15.80;99.90;;;;;;5056470;28;20257;-68
2023/10/24 09:45:02;;;;;;;1.10;0.90;;;15.90;99.90;;;;;;5041181;28;20182;-68
2023/10/24 09:47:29;;;;;;;1.58;0.90;;;16.00;99.90;;;;;;5036708;28;20170;-67
2023/10/24 09:49:57;;;;;;;1.30;1.00;;;16.00;99.90;;;;;;5036324;28;20264;-67
2023/10/24 09:52:27;;;;;;;1.40;1.08;;;16.10;99.90;;;;;;5043798;28;20178;-68
2023/10/24 09:54:53;;;;;;;1.77;1.00;;;16.20;99.90;;;;;;5036679;28;20236;-67
2023/10/24 09:57:23;;;;;;;1.85;1.02;;;16.20;99.90;;;;;;5036746;28;20181;-67
2023/10/24 09:59:59;;;;;;;1.73;1.00;;;16.30;99.90;;;;;;5016886;28;20170;-68
2023/10/24 10:02:26;;;;;;;2.10;0.70;;;16.30;99.90;;;;;;5035727;28;20264;-68
2023/10/24 10:04:52;;;;;;;1.13;0.80;;;16.40;99.90;;;;;;5036498;28;20587;-68
2023/10/24 10:07:20;;;;;;;1.58;1.02;;;16.40;99.90;;;;;;5036285;28;20170;-68
2023/10/24 10:09:47;;;;;;;1.40;1.08;;;16.40;99.90;;;;;;5036398;28;20239;-68
2023/10/24 10:12:17;;;;;;;2.38;1.00;;;16.40;99.90;;;;;;5030376;28;20175;-68
2023/10/24 10:14:51;;;;;;;2.20;1.00;;;16.40;99.90;;;;;;5022106;28;20254;-68
2023/10/24 10:17:54;;;;;;;1.17;0.95;;;16.40;99.90;;;;;;5036107;28;20259;-68
2023/10/24 10:20:32;;;;;;;3.25;1.10;;;16.40;99.90;;;;;;5048235;28;20185;-68
2023/10/24 10:23:12;;;;;;;0.80;0.80;;;16.50;99.90;;;;;;5055788;28;21261;-68
2023/10/24 10:25:58;;;;;;;1.48;0.90;;;16.50;99.90;;;;;;5039077;28;20196;-68
2023/10/24 10:28:48;;;;;;;1.25;0.80;;;16.50;99.90;;;;;;5019610;28;20209;-67
2023/10/24 10:31:54;;;;;;;1.25;1.02;;;16.50;99.90;;;;;;5041931;28;20209;-68
2023/10/24 10:34:33;;;;;;;2.38;1.30;;;16.50;99.90;;;;;;5016307;28;20187;-68
2023/10/24 10:37:04;;;;;;;1.00;0.90;;;16.50;99.90;;;;;;5016001;28;20205;-67
2023/10/24 10:39:29;;;;;;;1.50;0.85;;;16.50;99.90;;;;;;5027311;28;20181;-68
2023/10/24 10:41:56;;;;;;;1.30;0.80;;;16.50;99.90;;;;;;5035712;28;20446;-67
2023/10/24 10:44:32;;;;;;;1.55;1.00;;;16.50;99.90;;;;;;5035702;28;20198;-68
2023/10/24 10:47:01;;;;;;;1.73;1.00;;;16.50;99.90;;;;;;5035452;28;20177;-67
2023/10/24 10:49:44;;;;;;;1.55;0.95;;;16.50;99.90;;;;;;5035744;28;20198;-67
2023/10/24 10:52:46;;;;;;;2.17;0.80;;;16.50;99.90;;;;;;5026115;28;20206;-68
2023/10/24 10:55:25;;;;;;;1.60;0.90;;;16.50;99.90;;;;;;5015650;28;20178;-67
2023/10/24 10:58:23;;;;;;;1.17;0.85;;;16.50;99.90;;;;;;5015743;28;20206;-68
2023/10/24 11:01:10;;;;;;;1.15;0.80;;;16.60;99.90;;;;;;5015720;28;20201;-67
2023/10/24 11:03:44;;;;;;;1.63;0.93;;;16.50;99.90;;;;;;5027136;28;20181;-67
2023/10/24 11:06:16;;;;;;;1.67;1.00;;;16.50;99.90;;;;;;5035228;28;20186;-67
2023/10/24 11:09:06;;;;;;;1.33;0.90;;;16.50;99.90;;;;;;5035052;28;20220;-67
2023/10/24 11:11:35;;;;;;;1.77;0.90;;;16.40;99.90;;;;;;5016060;28;20239;-67
2023/10/24 11:14:20;;;;;;;1.33;0.85;;;16.40;99.90;;;;;;5035388;28;20170;-67
2023/10/24 11:16:53;;;;;;;3.72;0.95;;;16.30;99.90;;;;;;5035164;28;20170;-67
2023/10/24 11:19:20;;;;;;;1.70;1.00;;;16.30;99.90;;;;;;5035033;28;20279;-68
2023/10/24 11:21:51;;;;;;;1.80;1.00;;;16.30;99.90;;;;;;5035161;28;20170;-67
2023/10/24 11:24:22;;;;;;;1.40;0.80;;;16.20;99.90;;;;;;5035164;28;20163;-67
2023/10/24 11:26:59;;;;;;;1.67;1.00;;;16.20;99.90;;;;;;5034884;28;20181;-66
2023/10/24 11:29:26;;;;;;;1.77;1.10;;;16.20;99.90;;;;;;5034396;28;20280;-67
2023/10/24 11:31:52;;;;;;;3.75;1.00;;;16.20;99.90;;;;;;5034391;28;20198;-67
2023/10/24 11:34:18;;;;;;;1.20;0.80;;;16.10;99.90;;;;;;5034858;28;20174;-67
2023/10/24 11:36:47;;;;;;;1.73;0.95;;;16.10;99.90;;;;;;5034609;28;20348;-66
2023/10/24 11:39:15;;;;;;;1.55;1.02;;;16.10;99.90;;;;;;5044667;28;20202;-69
2023/10/24 11:41:43;;;;;;;1.90;1.02;;;16.00;99.90;;;;;;5034672;28;20189;-68
2023/10/24 11:44:11;;;;;;;1.45;1.00;;;16.00;99.90;;;;;;5034973;28;20178;-68
2023/10/24 11:46:41;;;;;;;1.27;0.90;;;16.00;99.90;;;;;;5034890;28;20205;-67
2023/10/24 11:49:07;;;;;;;2.15;1.00;;;16.00;99.90;;;;;;5034824;28;20202;-66
2023/10/24 11:51:33;;;;;;;2.75;1.05;;;16.00;99.90;;;;;;5034731;28;20188;-67
2023/10/24 11:54:03;;;;;;;1.13;0.88;;;15.90;99.90;;;;;;5034765;28;20174;-67
2023/10/24 11:56:30;;;;;;;2.00;1.17;;;15.90;99.90;;;;;;5035042;28;20174;-67
2023/10/24 11:59:01;;;;;;;3.00;1.00;;;15.90;99.90;;;;;;5034331;28;20262;-67
2023/10/24 12:01:35;;;;;;;2.05;1.20;;;15.90;99.90;;;;;;5015172;28;20206;-68
2023/10/24 12:04:03;;;;;;;2.15;0.90;;;16.00;99.90;;;;;;5023078;28;20193;-68
2023/10/24 12:06:29;;;;;;;2.25;0.98;;;15.90;99.90;;;;;;5041778;28;20201;-67
2023/10/24 12:08:57;;;;;;;2.25;1.08;;;15.90;99.90;;;;;;5054379;28;20216;-66
2023/10/24 12:11:23;;;;;;;1.50;1.17;;;15.90;99.90;;;;;;5054717;28;20173;-67
2023/10/24 12:13:51;;;;;;;1.13;0.98;;;15.90;99.90;;;;;;5054238;28;20197;-68
2023/10/24 12:16:20;;;;;;;1.85;1.10;;;15.90;99.90;;;;;;5054362;28;20318;-68
2023/10/24 12:18:45;;;;;;;1.92;1.00;;;15.90;99.90;;;;;;5054489;28;20170;-67
2023/10/24 12:21:14;;;;;;;4.07;1.60;;;15.80;99.90;;;;;;5054499;28;20169;-68
2023/10/24 12:23:39;;;;;;;1.60;1.25;;;15.80;99.90;;;;;;5054425;28;20179;-68
2023/10/24 12:26:06;;;;;;;1.85;1.08;;;15.80;99.90;;;;;;5054230;28;20260;-67
2023/10/24 12:28:36;;;;;;;2.35;1.05;;;15.80;99.90;;;;;;5054495;28;20205;-67
2023/10/24 12:31:02;;;;;;;2.35;1.08;;;15.70;99.90;;;;;;5045126;28;20177;-67
2023/10/24 12:33:29;;;;;;;1.70;1.23;;;15.70;99.90;;;;;;5031195;28;20195;-68
2023/10/24 12:35:57;;;;;;;4.60;1.65;;;15.70;99.90;;;;;;5031153;28;20171;-67
2023/10/24 12:38:23;;;;;;;1.70;1.10;;;15.60;99.90;;;;;;5030908;28;20201;-68
2023/10/24 12:40:48;;;;;;;1.17;0.88;;;15.50;99.90;;;;;;5031101;28;20293;-67
2023/10/24 12:43:14;;;;;;;1.08;0.70;;;15.30;99.90;;;;;;5030724;28;20214;-68
2023/10/24 12:45:42;;;;;;;1.38;0.60;;;15.10;99.90;;;;;;5031193;28;20195;-69
2023/10/24 12:48:11;;;;;;;0.95;0.70;;;14.90;99.90;;;;;;5031030;28;20215;-69
2023/10/24 12:50:37;;;;;;;0.65;0.52;;;14.60;99.90;;;;;;5034187;28;20490;-69
2023/10/24 12:53:03;;;;;;;0.95;0.50;;;14.40;99.90;;;;;;5034231;28;20212;-68
2023/10/24 12:55:29;;;;;;;1.42;0.50;;;14.20;99.90;;;;;;5034248;28;20261;-69